Terminal Aerodrome Forecast
Issued by NWS

Home | Current Version | Previous Version | Text Only | Print | Product List | Glossary On
Versions: 1 2 3 4 5 6 7 8 9 10 11 12 13 14 15 16 17 18
000
FTUS44 KLIX 252300
TAFMCB
TAF
KMCB 252322Z 2600/2624 VRB03KT P6SM BKN130
     FM261200 23005KT P6SM SKC
     FM261800 24012KT P6SM SKC=

USA.gov is the U.S. government's official web portal to all federal, state and local government web resources and services.